sensor_id;sensor_type;location;lat;lon;timestamp;P1;durP1;ratioP1;P2;durP2;ratioP2
48014;SDS011;33780;51.034;7.120;2023-04-24T00:02:22;0.43;;;0.17;;
48014;SDS011;33780;51.034;7.120;2023-04-24T00:04:47;0.82;;;0.40;;
48014;SDS011;33780;51.034;7.120;2023-04-24T00:07:13;0.60;;;0.30;;
48014;SDS011;33780;51.034;7.120;2023-04-24T00:09:42;2.10;;;0.40;;
48014;SDS011;33780;51.034;7.120;2023-04-24T00:12:09;0.57;;;0.30;;
48014;SDS011;33780;51.034;7.120;2023-04-24T00:14:35;0.50;;;0.30;;
48014;SDS011;33780;51.034;7.120;2023-04-24T00:17:00;0.80;;;0.22;;
48014;SDS011;33780;51.034;7.120;2023-04-24T00:19:27;0.70;;;0.30;;
48014;SDS011;33780;51.034;7.120;2023-04-24T00:21:53;0.50;;;0.30;;
48014;SDS011;33780;51.034;7.120;2023-04-24T00:24:18;2.28;;;0.30;;
48014;SDS011;33780;51.034;7.120;2023-04-24T00:26:44;0.65;;;0.28;;
48014;SDS011;33780;51.034;7.120;2023-04-24T00:29:09;0.60;;;0.30;;
48014;SDS011;33780;51.034;7.120;2023-04-24T00:31:34;0.80;;;0.30;;
48014;SDS011;33780;51.034;7.120;2023-04-24T00:34:00;0.40;;;0.20;;
48014;SDS011;33780;51.034;7.120;2023-04-24T00:36:27;0.40;;;0.20;;
48014;SDS011;33780;51.034;7.120;2023-04-24T00:38:53;0.68;;;0.30;;
48014;SDS011;33780;51.034;7.120;2023-04-24T00:41:18;1.15;;;0.32;;
48014;SDS011;33780;51.034;7.120;2023-04-24T00:43:44;1.33;;;0.40;;
48014;SDS011;33780;51.034;7.120;2023-04-24T00:46:09;0.52;;;0.30;;
48014;SDS011;33780;51.034;7.120;2023-04-24T00:48:35;0.65;;;0.30;;
48014;SDS011;33780;51.034;7.120;2023-04-24T00:51:03;0.70;;;0.30;;
48014;SDS011;33780;51.034;7.120;2023-04-24T00:53:29;1.67;;;0.60;;
48014;SDS011;33780;51.034;7.120;2023-04-24T00:55:54;1.38;;;0.30;;
48014;SDS011;33780;51.034;7.120;2023-04-24T00:58:20;1.23;;;0.50;;
48014;SDS011;33780;51.034;7.120;2023-04-24T01:00:45;1.13;;;0.38;;
48014;SDS011;33780;51.034;7.120;2023-04-24T01:03:12;0.80;;;0.40;;
48014;SDS011;33780;51.034;7.120;2023-04-24T01:05:39;0.93;;;0.47;;
48014;SDS011;33780;51.034;7.120;2023-04-24T01:08:04;0.93;;;0.47;;
48014;SDS011;33780;51.034;7.120;2023-04-24T01:10:30;1.40;;;0.60;;
48014;SDS011;33780;51.034;7.120;2023-04-24T01:12:57;1.25;;;0.50;;
48014;SDS011;33780;51.034;7.120;2023-04-24T01:15:23;1.52;;;0.47;;
48014;SDS011;33780;51.034;7.120;2023-04-24T01:17:48;1.10;;;0.50;;
48014;SDS011;33780;51.034;7.120;2023-04-24T01:20:13;1.48;;;0.60;;
48014;SDS011;33780;51.034;7.120;2023-04-24T01:22:40;1.95;;;0.60;;
48014;SDS011;33780;51.034;7.120;2023-04-24T01:25:06;1.17;;;0.50;;
48014;SDS011;33780;51.034;7.120;2023-04-24T01:27:32;2.10;;;0.55;;
48014;SDS011;33780;51.034;7.120;2023-04-24T01:29:57;1.30;;;0.50;;
48014;SDS011;33780;51.034;7.120;2023-04-24T01:32:23;1.52;;;0.63;;
48014;SDS011;33780;51.034;7.120;2023-04-24T01:34:49;1.00;;;0.43;;
48014;SDS011;33780;51.034;7.120;2023-04-24T01:37:15;0.93;;;0.50;;
48014;SDS011;33780;51.034;7.120;2023-04-24T01:39:41;0.93;;;0.57;;
48014;SDS011;33780;51.034;7.120;2023-04-24T01:42:07;2.38;;;0.70;;
48014;SDS011;33780;51.034;7.120;2023-04-24T01:44:33;1.52;;;0.68;;
48014;SDS011;33780;51.034;7.120;2023-04-24T01:46:59;1.85;;;0.70;;
48014;SDS011;33780;51.034;7.120;2023-04-24T01:49:25;1.48;;;0.80;;
48014;SDS011;33780;51.034;7.120;2023-04-24T01:51:51;2.83;;;1.10;;
48014;SDS011;33780;51.034;7.120;2023-04-24T01:54:16;2.10;;;1.10;;
48014;SDS011;33780;51.034;7.120;2023-04-24T01:56:42;2.50;;;1.00;;
48014;SDS011;33780;51.034;7.120;2023-04-24T01:59:08;2.60;;;1.25;;
48014;SDS011;33780;51.034;7.120;2023-04-24T02:01:35;2.53;;;1.25;;
48014;SDS011;33780;51.034;7.120;2023-04-24T02:04:01;1.88;;;1.08;;
48014;SDS011;33780;51.034;7.120;2023-04-24T02:06:26;2.72;;;1.02;;
48014;SDS011;33780;51.034;7.120;2023-04-24T02:08:52;2.15;;;1.20;;
48014;SDS011;33780;51.034;7.120;2023-04-24T02:11:17;3.17;;;1.00;;
48014;SDS011;33780;51.034;7.120;2023-04-24T02:13:43;2.83;;;1.30;;
48014;SDS011;33780;51.034;7.120;2023-04-24T02:16:08;3.25;;;1.17;;
48014;SDS011;33780;51.034;7.120;2023-04-24T02:18:34;2.92;;;1.45;;
48014;SDS011;33780;51.034;7.120;2023-04-24T02:20:59;3.90;;;1.70;;
48014;SDS011;33780;51.034;7.120;2023-04-24T02:23:24;6.97;;;1.67;;
48014;SDS011;33780;51.034;7.120;2023-04-24T02:25:50;2.90;;;1.30;;
48014;SDS011;33780;51.034;7.120;2023-04-24T02:28:15;3.40;;;1.42;;
48014;SDS011;33780;51.034;7.120;2023-04-24T02:30:40;4.00;;;1.90;;
48014;SDS011;33780;51.034;7.120;2023-04-24T02:33:06;3.63;;;1.60;;
48014;SDS011;33780;51.034;7.120;2023-04-24T02:35:32;4.88;;;2.00;;
48014;SDS011;33780;51.034;7.120;2023-04-24T02:37:57;4.25;;;1.55;;
48014;SDS011;33780;51.034;7.120;2023-04-24T02:40:22;4.00;;;2.17;;
48014;SDS011;33780;51.034;7.120;2023-04-24T02:42:47;2.97;;;1.70;;
48014;SDS011;33780;51.034;7.120;2023-04-24T02:45:13;2.85;;;1.80;;
48014;SDS011;33780;51.034;7.120;2023-04-24T02:47:38;4.30;;;1.80;;
48014;SDS011;33780;51.034;7.120;2023-04-24T02:50:03;4.47;;;1.80;;
48014;SDS011;33780;51.034;7.120;2023-04-24T02:52:29;5.55;;;2.10;;
48014;SDS011;33780;51.034;7.120;2023-04-24T02:54:54;3.90;;;2.00;;
48014;SDS011;33780;51.034;7.120;2023-04-24T02:57:20;4.22;;;1.70;;
48014;SDS011;33780;51.034;7.120;2023-04-24T02:59:45;3.10;;;1.50;;
48014;SDS011;33780;51.034;7.120;2023-04-24T03:02:10;3.20;;;1.70;;
48014;SDS011;33780;51.034;7.120;2023-04-24T03:04:36;3.20;;;1.40;;
48014;SDS011;33780;51.034;7.120;2023-04-24T03:07:01;2.85;;;1.42;;
48014;SDS011;33780;51.034;7.120;2023-04-24T03:09:27;3.13;;;1.70;;
48014;SDS011;33780;51.034;7.120;2023-04-24T03:11:52;5.25;;;1.52;;
48014;SDS011;33780;51.034;7.120;2023-04-24T03:14:17;3.78;;;1.70;;
48014;SDS011;33780;51.034;7.120;2023-04-24T03:16:42;3.13;;;1.42;;
48014;SDS011;33780;51.034;7.120;2023-04-24T03:19:08;5.32;;;1.65;;
48014;SDS011;33780;51.034;7.120;2023-04-24T03:21:33;3.30;;;1.73;;
48014;SDS011;33780;51.034;7.120;2023-04-24T03:24:03;3.33;;;1.70;;
48014;SDS011;33780;51.034;7.120;2023-04-24T03:26:29;3.70;;;2.13;;
48014;SDS011;33780;51.034;7.120;2023-04-24T03:28:54;3.97;;;2.10;;
48014;SDS011;33780;51.034;7.120;2023-04-24T03:31:19;5.57;;;2.47;;
48014;SDS011;33780;51.034;7.120;2023-04-24T03:33:46;4.47;;;2.55;;
48014;SDS011;33780;51.034;7.120;2023-04-24T03:36:11;4.32;;;2.00;;
48014;SDS011;33780;51.034;7.120;2023-04-24T03:38:36;4.75;;;2.33;;
48014;SDS011;33780;51.034;7.120;2023-04-24T03:41:02;5.72;;;2.55;;
48014;SDS011;33780;51.034;7.120;2023-04-24T03:43:27;4.78;;;2.33;;
48014;SDS011;33780;51.034;7.120;2023-04-24T03:45:52;5.38;;;2.38;;
48014;SDS011;33780;51.034;7.120;2023-04-24T03:48:18;4.25;;;2.30;;
48014;SDS011;33780;51.034;7.120;2023-04-24T03:50:43;6.78;;;2.70;;
48014;SDS011;33780;51.034;7.120;2023-04-24T03:53:08;4.25;;;2.17;;
48014;SDS011;33780;51.034;7.120;2023-04-24T03:55:33;5.22;;;2.58;;
48014;SDS011;33780;51.034;7.120;2023-04-24T03:57:59;4.97;;;2.35;;
48014;SDS011;33780;51.034;7.120;2023-04-24T04:00:24;4.35;;;2.13;;
48014;SDS011;33780;51.034;7.120;2023-04-24T04:02:51;3.92;;;2.42;;
48014;SDS011;33780;51.034;7.120;2023-04-24T04:05:16;4.72;;;2.33;;
48014;SDS011;33780;51.034;7.120;2023-04-24T04:07:41;4.30;;;2.10;;
48014;SDS011;33780;51.034;7.120;2023-04-24T04:10:07;6.43;;;2.05;;
48014;SDS011;33780;51.034;7.120;2023-04-24T04:12:32;4.55;;;2.40;;
48014;SDS011;33780;51.034;7.120;2023-04-24T04:14:57;4.13;;;2.30;;
48014;SDS011;33780;51.034;7.120;2023-04-24T04:17:23;5.38;;;1.92;;
48014;SDS011;33780;51.034;7.120;2023-04-24T04:19:48;3.78;;;1.90;;
48014;SDS011;33780;51.034;7.120;2023-04-24T04:22:13;4.07;;;1.98;;
48014;SDS011;33780;51.034;7.120;2023-04-24T04:24:39;4.07;;;1.95;;
48014;SDS011;33780;51.034;7.120;2023-04-24T04:27:05;5.22;;;2.15;;
48014;SDS011;33780;51.034;7.120;2023-04-24T04:29:31;3.78;;;2.10;;
48014;SDS011;33780;51.034;7.120;2023-04-24T04:31:56;4.18;;;2.13;;
48014;SDS011;33780;51.034;7.120;2023-04-24T04:34:22;5.20;;;2.40;;
48014;SDS011;33780;51.034;7.120;2023-04-24T04:36:48;5.68;;;2.00;;
48014;SDS011;33780;51.034;7.120;2023-04-24T04:39:13;3.80;;;2.15;;
48014;SDS011;33780;51.034;7.120;2023-04-24T04:41:39;4.10;;;1.92;;
48014;SDS011;33780;51.034;7.120;2023-04-24T04:44:05;3.50;;;2.13;;
48014;SDS011;33780;51.034;7.120;2023-04-24T04:46:31;3.47;;;1.90;;
48014;SDS011;33780;51.034;7.120;2023-04-24T04:49:00;3.90;;;1.70;;
48014;SDS011;33780;51.034;7.120;2023-04-24T04:51:26;3.58;;;2.00;;
48014;SDS011;33780;51.034;7.120;2023-04-24T04:53:52;3.88;;;2.10;;
48014;SDS011;33780;51.034;7.120;2023-04-24T04:56:17;3.03;;;1.85;;
48014;SDS011;33780;51.034;7.120;2023-04-24T04:58:42;4.28;;;1.60;;
48014;SDS011;33780;51.034;7.120;2023-04-24T05:01:08;4.50;;;1.80;;
48014;SDS011;33780;51.034;7.120;2023-04-24T05:03:33;4.10;;;2.10;;
48014;SDS011;33780;51.034;7.120;2023-04-24T05:05:58;4.22;;;2.00;;
48014;SDS011;33780;51.034;7.120;2023-04-24T05:08:23;4.20;;;1.90;;
48014;SDS011;33780;51.034;7.120;2023-04-24T05:10:49;3.60;;;1.80;;
48014;SDS011;33780;51.034;7.120;2023-04-24T05:13:14;3.75;;;1.90;;
48014;SDS011;33780;51.034;7.120;2023-04-24T05:15:39;3.47;;;1.90;;
48014;SDS011;33780;51.034;7.120;2023-04-24T05:18:05;3.40;;;1.80;;
48014;SDS011;33780;51.034;7.120;2023-04-24T05:20:30;3.95;;;1.95;;
48014;SDS011;33780;51.034;7.120;2023-04-24T05:22:55;4.25;;;1.88;;
48014;SDS011;33780;51.034;7.120;2023-04-24T05:25:21;4.97;;;1.67;;
48014;SDS011;33780;51.034;7.120;2023-04-24T05:27:46;3.20;;;1.73;;
48014;SDS011;33780;51.034;7.120;2023-04-24T05:30:12;3.28;;;1.63;;
48014;SDS011;33780;51.034;7.120;2023-04-24T05:32:37;3.03;;;1.73;;
48014;SDS011;33780;51.034;7.120;2023-04-24T05:35:03;4.53;;;1.98;;
48014;SDS011;33780;51.034;7.120;2023-04-24T05:37:28;7.35;;;2.00;;
48014;SDS011;33780;51.034;7.120;2023-04-24T05:39:53;4.80;;;1.80;;
48014;SDS011;33780;51.034;7.120;2023-04-24T05:42:19;5.30;;;2.08;;
48014;SDS011;33780;51.034;7.120;2023-04-24T05:44:44;4.95;;;1.70;;
48014;SDS011;33780;51.034;7.120;2023-04-24T05:47:09;4.30;;;1.80;;
48014;SDS011;33780;51.034;7.120;2023-04-24T05:49:35;5.03;;;2.33;;
48014;SDS011;33780;51.034;7.120;2023-04-24T05:52:00;4.18;;;2.10;;
48014;SDS011;33780;51.034;7.120;2023-04-24T05:54:25;4.05;;;1.95;;
48014;SDS011;33780;51.034;7.120;2023-04-24T05:56:50;3.53;;;1.90;;
48014;SDS011;33780;51.034;7.120;2023-04-24T05:59:16;3.72;;;2.08;;
48014;SDS011;33780;51.034;7.120;2023-04-24T06:01:41;5.47;;;2.17;;
48014;SDS011;33780;51.034;7.120;2023-04-24T06:04:07;4.15;;;2.22;;
48014;SDS011;33780;51.034;7.120;2023-04-24T06:06:32;5.53;;;2.30;;
48014;SDS011;33780;51.034;7.120;2023-04-24T06:08:58;5.07;;;2.28;;
48014;SDS011;33780;51.034;7.120;2023-04-24T06:11:23;9.70;;;2.65;;
48014;SDS011;33780;51.034;7.120;2023-04-24T06:13:49;5.53;;;2.30;;
48014;SDS011;33780;51.034;7.120;2023-04-24T06:16:15;3.40;;;2.03;;
48014;SDS011;33780;51.034;7.120;2023-04-24T06:18:40;4.90;;;2.15;;
48014;SDS011;33780;51.034;7.120;2023-04-24T06:21:06;4.20;;;2.17;;
48014;SDS011;33780;51.034;7.120;2023-04-24T06:23:31;4.18;;;2.20;;
48014;SDS011;33780;51.034;7.120;2023-04-24T06:25:58;3.95;;;2.08;;
48014;SDS011;33780;51.034;7.120;2023-04-24T06:28:23;4.20;;;2.17;;
48014;SDS011;33780;51.034;7.120;2023-04-24T06:30:49;3.97;;;2.30;;
48014;SDS011;33780;51.034;7.120;2023-04-24T06:33:15;4.10;;;2.30;;
48014;SDS011;33780;51.034;7.120;2023-04-24T06:35:41;3.97;;;2.15;;
48014;SDS011;33780;51.034;7.120;2023-04-24T06:38:06;4.60;;;2.22;;
48014;SDS011;33780;51.034;7.120;2023-04-24T06:40:31;4.22;;;2.30;;
48014;SDS011;33780;51.034;7.120;2023-04-24T06:42:58;4.72;;;2.38;;
48014;SDS011;33780;51.034;7.120;2023-04-24T06:45:25;4.20;;;2.35;;
48014;SDS011;33780;51.034;7.120;2023-04-24T06:47:50;4.93;;;2.60;;
48014;SDS011;33780;51.034;7.120;2023-04-24T06:50:16;5.38;;;2.58;;
48014;SDS011;33780;51.034;7.120;2023-04-24T06:52:41;5.30;;;2.58;;
48014;SDS011;33780;51.034;7.120;2023-04-24T06:55:07;6.53;;;2.50;;
48014;SDS011;33780;51.034;7.120;2023-04-24T06:57:33;3.80;;;2.17;;
48014;SDS011;33780;51.034;7.120;2023-04-24T06:59:58;4.50;;;2.13;;
48014;SDS011;33780;51.034;7.120;2023-04-24T07:02:24;4.30;;;2.15;;
48014;SDS011;33780;51.034;7.120;2023-04-24T07:04:49;3.45;;;1.90;;
48014;SDS011;33780;51.034;7.120;2023-04-24T07:07:15;4.35;;;1.95;;
48014;SDS011;33780;51.034;7.120;2023-04-24T07:09:41;3.42;;;1.40;;
48014;SDS011;33780;51.034;7.120;2023-04-24T07:12:07;3.33;;;1.13;;
48014;SDS011;33780;51.034;7.120;2023-04-24T07:14:33;2.92;;;0.95;;
48014;SDS011;33780;51.034;7.120;2023-04-24T07:16:58;1.92;;;0.80;;
48014;SDS011;33780;51.034;7.120;2023-04-24T07:19:24;2.65;;;0.90;;
48014;SDS011;33780;51.034;7.120;2023-04-24T07:21:49;1.33;;;0.77;;
48014;SDS011;33780;51.034;7.120;2023-04-24T07:24:15;2.17;;;0.85;;
48014;SDS011;33780;51.034;7.120;2023-04-24T07:26:40;1.80;;;0.80;;
48014;SDS011;33780;51.034;7.120;2023-04-24T07:29:06;1.90;;;1.00;;
48014;SDS011;33780;51.034;7.120;2023-04-24T07:31:32;1.50;;;0.70;;
48014;SDS011;33780;51.034;7.120;2023-04-24T07:33:57;1.90;;;0.80;;
48014;SDS011;33780;51.034;7.120;2023-04-24T07:36:23;1.77;;;0.80;;
48014;SDS011;33780;51.034;7.120;2023-04-24T07:38:49;1.75;;;0.60;;
48014;SDS011;33780;51.034;7.120;2023-04-24T07:41:14;2.03;;;0.90;;
48014;SDS011;33780;51.034;7.120;2023-04-24T07:43:40;1.73;;;0.80;;
48014;SDS011;33780;51.034;7.120;2023-04-24T07:46:06;1.52;;;0.80;;
48014;SDS011;33780;51.034;7.120;2023-04-24T07:48:32;1.98;;;0.73;;
48014;SDS011;33780;51.034;7.120;2023-04-24T07:50:57;1.45;;;0.70;;
48014;SDS011;33780;51.034;7.120;2023-04-24T07:53:22;1.10;;;0.60;;
48014;SDS011;33780;51.034;7.120;2023-04-24T07:55:48;1.25;;;0.57;;
48014;SDS011;33780;51.034;7.120;2023-04-24T07:58:13;2.55;;;0.50;;
48014;SDS011;33780;51.034;7.120;2023-04-24T08:00:38;1.27;;;0.40;;
48014;SDS011;33780;51.034;7.120;2023-04-24T08:03:03;0.90;;;0.50;;
48014;SDS011;33780;51.034;7.120;2023-04-24T08:05:29;1.15;;;0.60;;
48014;SDS011;33780;51.034;7.120;2023-04-24T08:07:54;1.15;;;0.47;;
48014;SDS011;33780;51.034;7.120;2023-04-24T08:10:20;0.80;;;0.40;;
48014;SDS011;33780;51.034;7.120;2023-04-24T08:12:47;0.68;;;0.35;;
48014;SDS011;33780;51.034;7.120;2023-04-24T08:15:12;0.88;;;0.50;;
48014;SDS011;33780;51.034;7.120;2023-04-24T08:17:37;0.95;;;0.40;;
48014;SDS011;33780;51.034;7.120;2023-04-24T08:20:03;1.05;;;0.40;;
48014;SDS011;33780;51.034;7.120;2023-04-24T08:22:30;2.30;;;0.65;;
48014;SDS011;33780;51.034;7.120;2023-04-24T08:24:55;1.17;;;0.60;;
48014;SDS011;33780;51.034;7.120;2023-04-24T08:27:22;0.73;;;0.30;;
48014;SDS011;33780;51.034;7.120;2023-04-24T08:29:47;1.00;;;0.50;;
48014;SDS011;33780;51.034;7.120;2023-04-24T08:32:13;1.15;;;0.50;;
48014;SDS011;33780;51.034;7.120;2023-04-24T08:34:38;1.42;;;0.50;;
48014;SDS011;33780;51.034;7.120;2023-04-24T08:37:03;1.20;;;0.50;;
48014;SDS011;33780;51.034;7.120;2023-04-24T08:39:28;0.60;;;0.25;;
48014;SDS011;33780;51.034;7.120;2023-04-24T08:41:54;1.67;;;0.40;;
48014;SDS011;33780;51.034;7.120;2023-04-24T08:44:20;1.25;;;0.40;;
48014;SDS011;33780;51.034;7.120;2023-04-24T08:46:48;2.75;;;0.38;;
48014;SDS011;33780;51.034;7.120;2023-04-24T08:49:14;0.80;;;0.40;;
48014;SDS011;33780;51.034;7.120;2023-04-24T08:51:41;2.95;;;0.73;;
48014;SDS011;33780;51.034;7.120;2023-04-24T08:54:07;2.25;;;0.60;;
48014;SDS011;33780;51.034;7.120;2023-04-24T08:56:33;1.27;;;0.60;;
48014;SDS011;33780;51.034;7.120;2023-04-24T08:59:03;1.10;;;0.50;;
48014;SDS011;33780;51.034;7.120;2023-04-24T09:01:29;1.40;;;0.60;;
48014;SDS011;33780;51.034;7.120;2023-04-24T09:03:58;1.25;;;0.55;;
48014;SDS011;33780;51.034;7.120;2023-04-24T09:06:28;1.48;;;0.60;;
48014;SDS011;33780;51.034;7.120;2023-04-24T09:09:00;1.23;;;0.60;;
48014;SDS011;33780;51.034;7.120;2023-04-24T09:11:26;3.22;;;0.75;;
48014;SDS011;33780;51.034;7.120;2023-04-24T09:13:55;1.48;;;0.70;;
48014;SDS011;33780;51.034;7.120;2023-04-24T09:16:21;2.35;;;0.77;;
48014;SDS011;33780;51.034;7.120;2023-04-24T09:18:49;2.15;;;1.00;;
48014;SDS011;33780;51.034;7.120;2023-04-24T09:21:20;3.15;;;1.10;;
48014;SDS011;33780;51.034;7.120;2023-04-24T09:23:47;3.72;;;1.15;;
48014;SDS011;33780;51.034;7.120;2023-04-24T09:26:23;2.08;;;1.17;;
48014;SDS011;33780;51.034;7.120;2023-04-24T09:28:49;2.70;;;1.42;;
48014;SDS011;33780;51.034;7.120;2023-04-24T09:31:15;3.70;;;1.55;;
48014;SDS011;33780;51.034;7.120;2023-04-24T09:33:57;2.80;;;1.38;;
48014;SDS011;33780;51.034;7.120;2023-04-24T09:36:31;2.85;;;1.58;;
48014;SDS011;33780;51.034;7.120;2023-04-24T09:39:03;3.63;;;1.60;;
48014;SDS011;33780;51.034;7.120;2023-04-24T09:41:35;3.50;;;1.50;;
48014;SDS011;33780;51.034;7.120;2023-04-24T09:44:13;2.92;;;1.50;;
48014;SDS011;33780;51.034;7.120;2023-04-24T09:46:41;3.25;;;1.75;;
48014;SDS011;33780;51.034;7.120;2023-04-24T09:49:08;3.95;;;1.60;;
48014;SDS011;33780;51.034;7.120;2023-04-24T09:51:36;5.10;;;1.60;;
48014;SDS011;33780;51.034;7.120;2023-04-24T09:54:03;4.93;;;1.42;;
48014;SDS011;33780;51.034;7.120;2023-04-24T09:56:32;3.15;;;1.48;;
48014;SDS011;33780;51.034;7.120;2023-04-24T09:59:07;2.88;;;1.52;;
48014;SDS011;33780;51.034;7.120;2023-04-24T10:01:33;3.38;;;1.65;;
48014;SDS011;33780;51.034;7.120;2023-04-24T10:03:59;3.40;;;1.40;;
48014;SDS011;33780;51.034;7.120;2023-04-24T10:06:32;3.08;;;1.33;;
48014;SDS011;33780;51.034;7.120;2023-04-24T10:08:58;3.63;;;1.63;;
48014;SDS011;33780;51.034;7.120;2023-04-24T10:11:26;5.63;;;1.63;;
48014;SDS011;33780;51.034;7.120;2023-04-24T10:13:53;3.13;;;1.60;;
48014;SDS011;33780;51.034;7.120;2023-04-24T10:16:18;4.00;;;1.85;;
48014;SDS011;33780;51.034;7.120;2023-04-24T10:18:46;2.97;;;1.40;;
48014;SDS011;33780;51.034;7.120;2023-04-24T10:21:13;4.68;;;1.95;;
48014;SDS011;33780;51.034;7.120;2023-04-24T10:23:39;5.63;;;2.25;;
48014;SDS011;33780;51.034;7.120;2023-04-24T10:26:10;5.40;;;2.58;;
48014;SDS011;33780;51.034;7.120;2023-04-24T10:28:43;7.78;;;2.22;;
48014;SDS011;33780;51.034;7.120;2023-04-24T10:31:15;3.40;;;2.03;;
48014;SDS011;33780;51.034;7.120;2023-04-24T10:33:41;4.28;;;2.22;;
48014;SDS011;33780;51.034;7.120;2023-04-24T10:36:09;6.88;;;2.40;;
48014;SDS011;33780;51.034;7.120;2023-04-24T10:38:35;4.40;;;2.28;;
48014;SDS011;33780;51.034;7.120;2023-04-24T10:41:11;4.97;;;2.38;;
48014;SDS011;33780;51.034;7.120;2023-04-24T10:46:31;4.97;;;2.05;;
48014;SDS011;33780;51.034;7.120;2023-04-24T10:48:57;6.03;;;2.05;;
48014;SDS011;33780;51.034;7.120;2023-04-24T10:51:23;3.03;;;1.88;;
48014;SDS011;33780;51.034;7.120;2023-04-24T10:53:49;4.22;;;1.95;;
48014;SDS011;33780;51.034;7.120;2023-04-24T10:56:16;4.70;;;1.80;;
48014;SDS011;33780;51.034;7.120;2023-04-24T10:58:43;6.32;;;2.00;;
48014;SDS011;33780;51.034;7.120;2023-04-24T11:01:22;5.70;;;1.80;;
48014;SDS011;33780;51.034;7.120;2023-04-24T11:04:04;7.15;;;1.85;;
48014;SDS011;33780;51.034;7.120;2023-04-24T11:06:29;4.93;;;1.80;;
48014;SDS011;33780;51.034;7.120;2023-04-24T11:11:30;4.97;;;1.50;;
48014;SDS011;33780;51.034;7.120;2023-04-24T11:16:25;3.47;;;1.50;;
48014;SDS011;33780;51.034;7.120;2023-04-24T11:19:09;4.07;;;1.20;;
48014;SDS011;33780;51.034;7.120;2023-04-24T11:21:48;3.78;;;1.17;;
48014;SDS011;33780;51.034;7.120;2023-04-24T11:24:29;5.03;;;1.30;;
48014;SDS011;33780;51.034;7.120;2023-04-24T11:26:59;6.03;;;1.60;;
48014;SDS011;33780;51.034;7.120;2023-04-24T11:29:46;4.63;;;1.65;;
48014;SDS011;33780;51.034;7.120;2023-04-24T11:35:06;4.10;;;1.20;;
48014;SDS011;33780;51.034;7.120;2023-04-24T11:37:51;6.65;;;1.50;;
48014;SDS011;33780;51.034;7.120;2023-04-24T11:40:18;3.85;;;1.50;;
48014;SDS011;33780;51.034;7.120;2023-04-24T11:42:49;2.97;;;1.27;;
48014;SDS011;33780;51.034;7.120;2023-04-24T11:45:21;2.83;;;1.02;;
48014;SDS011;33780;51.034;7.120;2023-04-24T11:47:48;4.68;;;1.50;;
48014;SDS011;33780;51.034;7.120;2023-04-24T11:50:19;2.63;;;1.10;;
48014;SDS011;33780;51.034;7.120;2023-04-24T11:52:47;5.45;;;1.48;;
48014;SDS011;33780;51.034;7.120;2023-04-24T11:57:39;5.03;;;1.50;;
48014;SDS011;33780;51.034;7.120;2023-04-24T12:00:14;5.22;;;1.70;;
48014;SDS011;33780;51.034;7.120;2023-04-24T12:02:41;3.15;;;1.35;;
48014;SDS011;33780;51.034;7.120;2023-04-24T12:05:06;7.00;;;1.75;;
48014;SDS011;33780;51.034;7.120;2023-04-24T12:07:39;5.00;;;2.00;;
48014;SDS011;33780;51.034;7.120;2023-04-24T12:10:07;7.93;;;1.80;;
48014;SDS011;33780;51.034;7.120;2023-04-24T12:12:34;7.60;;;2.00;;
48014;SDS011;33780;51.034;7.120;2023-04-24T12:15:00;3.58;;;1.60;;
48014;SDS011;33780;51.034;7.120;2023-04-24T12:17:28;6.25;;;1.77;;
48014;SDS011;33780;51.034;7.120;2023-04-24T12:20:01;4.63;;;1.55;;
48014;SDS011;33780;51.034;7.120;2023-04-24T12:22:42;4.53;;;1.60;;
48014;SDS011;33780;51.034;7.120;2023-04-24T12:25:19;5.28;;;1.92;;
48014;SDS011;33780;51.034;7.120;2023-04-24T12:27:46;6.38;;;1.92;;
48014;SDS011;33780;51.034;7.120;2023-04-24T12:30:17;5.43;;;1.70;;
48014;SDS011;33780;51.034;7.120;2023-04-24T12:32:44;4.80;;;1.75;;
48014;SDS011;33780;51.034;7.120;2023-04-24T12:35:14;3.30;;;1.38;;
48014;SDS011;33780;51.034;7.120;2023-04-24T12:37:44;3.75;;;1.30;;
48014;SDS011;33780;51.034;7.120;2023-04-24T12:40:10;5.10;;;1.30;;
48014;SDS011;33780;51.034;7.120;2023-04-24T12:42:44;2.30;;;1.20;;
48014;SDS011;33780;51.034;7.120;2023-04-24T12:45:14;4.30;;;1.80;;
48014;SDS011;33780;51.034;7.120;2023-04-24T12:47:44;3.75;;;1.40;;
48014;SDS011;33780;51.034;7.120;2023-04-24T12:50:11;4.00;;;1.27;;
48014;SDS011;33780;51.034;7.120;2023-04-24T12:52:38;3.90;;;1.50;;
48014;SDS011;33780;51.034;7.120;2023-04-24T12:55:04;6.00;;;1.27;;
48014;SDS011;33780;51.034;7.120;2023-04-24T12:57:33;3.97;;;1.40;;
48014;SDS011;33780;51.034;7.120;2023-04-24T12:59:59;3.95;;;1.45;;
48014;SDS011;33780;51.034;7.120;2023-04-24T13:02:26;4.10;;;1.23;;
48014;SDS011;33780;51.034;7.120;2023-04-24T13:04:54;4.43;;;1.40;;
48014;SDS011;33780;51.034;7.120;2023-04-24T13:07:19;3.58;;;1.52;;
48014;SDS011;33780;51.034;7.120;2023-04-24T13:09:45;3.25;;;1.10;;
48014;SDS011;33780;51.034;7.120;2023-04-24T13:12:12;4.53;;;1.60;;
48014;SDS011;33780;51.034;7.120;2023-04-24T13:14:37;4.30;;;1.30;;
48014;SDS011;33780;51.034;7.120;2023-04-24T13:17:03;2.83;;;1.38;;
48014;SDS011;33780;51.034;7.120;2023-04-24T13:19:29;3.40;;;1.30;;
48014;SDS011;33780;51.034;7.120;2023-04-24T13:22:00;3.20;;;1.20;;
48014;SDS011;33780;51.034;7.120;2023-04-24T13:24:25;2.83;;;1.58;;
48014;SDS011;33780;51.034;7.120;2023-04-24T13:26:53;3.72;;;1.15;;
48014;SDS011;33780;51.034;7.120;2023-04-24T13:29:19;3.22;;;1.60;;
48014;SDS011;33780;51.034;7.120;2023-04-24T13:31:49;2.95;;;1.52;;
48014;SDS011;33780;51.034;7.120;2023-04-24T13:34:16;3.25;;;1.40;;
48014;SDS011;33780;51.034;7.120;2023-04-24T13:36:42;3.00;;;1.33;;
48014;SDS011;33780;51.034;7.120;2023-04-24T13:39:07;3.67;;;1.42;;
48014;SDS011;33780;51.034;7.120;2023-04-24T13:41:33;2.30;;;1.15;;
48014;SDS011;33780;51.034;7.120;2023-04-24T13:43:58;3.88;;;1.48;;
48014;SDS011;33780;51.034;7.120;2023-04-24T13:46:24;4.03;;;1.27;;
48014;SDS011;33780;51.034;7.120;2023-04-24T13:48:49;3.72;;;1.60;;
48014;SDS011;33780;51.034;7.120;2023-04-24T13:51:14;5.80;;;1.50;;
48014;SDS011;33780;51.034;7.120;2023-04-24T13:53:40;6.82;;;1.50;;
48014;SDS011;33780;51.034;7.120;2023-04-24T13:56:08;2.30;;;1.10;;
48014;SDS011;33780;51.034;7.120;2023-04-24T13:58:33;5.82;;;1.40;;
48014;SDS011;33780;51.034;7.120;2023-04-24T14:01:00;2.15;;;1.30;;
48014;SDS011;33780;51.034;7.120;2023-04-24T14:03:26;4.22;;;1.52;;
48014;SDS011;33780;51.034;7.120;2023-04-24T14:05:51;3.45;;;1.50;;
48014;SDS011;33780;51.034;7.120;2023-04-24T14:08:19;2.75;;;1.30;;
48014;SDS011;33780;51.034;7.120;2023-04-24T14:10:44;3.50;;;1.35;;
48014;SDS011;33780;51.034;7.120;2023-04-24T14:13:10;4.18;;;1.35;;
48014;SDS011;33780;51.034;7.120;2023-04-24T14:15:35;4.57;;;1.38;;
48014;SDS011;33780;51.034;7.120;2023-04-24T14:18:03;3.03;;;1.30;;
48014;SDS011;33780;51.034;7.120;2023-04-24T14:20:28;3.70;;;1.25;;
48014;SDS011;33780;51.034;7.120;2023-04-24T14:22:54;3.22;;;1.35;;
48014;SDS011;33780;51.034;7.120;2023-04-24T14:25:19;2.58;;;1.20;;
48014;SDS011;33780;51.034;7.120;2023-04-24T14:27:45;3.13;;;1.13;;
48014;SDS011;33780;51.034;7.120;2023-04-24T14:30:13;2.65;;;1.23;;
48014;SDS011;33780;51.034;7.120;2023-04-24T14:32:40;3.33;;;1.45;;
48014;SDS011;33780;51.034;7.120;2023-04-24T14:35:05;4.85;;;1.65;;
48014;SDS011;33780;51.034;7.120;2023-04-24T14:37:31;5.25;;;1.40;;
48014;SDS011;33780;51.034;7.120;2023-04-24T14:39:57;4.10;;;1.63;;
48014;SDS011;33780;51.034;7.120;2023-04-24T14:42:22;6.40;;;1.80;;
48014;SDS011;33780;51.034;7.120;2023-04-24T14:44:48;2.63;;;1.33;;
48014;SDS011;33780;51.034;7.120;2023-04-24T14:47:16;4.63;;;1.50;;
48014;SDS011;33780;51.034;7.120;2023-04-24T14:49:46;5.78;;;1.40;;
48014;SDS011;33780;51.034;7.120;2023-04-24T14:52:12;3.40;;;1.42;;
48014;SDS011;33780;51.034;7.120;2023-04-24T14:54:37;6.03;;;1.60;;
48014;SDS011;33780;51.034;7.120;2023-04-24T14:57:03;4.50;;;1.30;;
48014;SDS011;33780;51.034;7.120;2023-04-24T14:59:28;2.85;;;1.40;;